Weather at Pardubice Airport

Public forecast

Using degrees Celsius for public forecast. Weather courtesy of forecast.io.

Current aviation weather report (METAR) for Pardubice Airport

Retrieved 2021/03/03 10:30 UTC (0 seconds ago):

LKPD 031030Z VRB01KT 0800 R27/P2000N FZFG VV001 M00/M00 Q1031 NOSIG RMK RED RED

Aviation forecast (TAF) for Pardubice Airport

Forecast is more than 6 hours old.

Retrieved 2021-03-03 00:00 UTC (10 hours ago):

TAF LKPD 022300Z 0300/0400 VRB02KT 0600 FG VV002 TEMPO 0300/0309 0200 FZFG VV001 BECMG 0311/0313 2000 BR BKN003 PROB40 TEMPO 0313/0317 4000 BR SCT005 BECMG 0319/0321 0500 FG VV002